sensor_id;sensor_type;location;lat;lon;timestamp;P1;durP1;ratioP1;P2;durP2;ratioP2
4391;SDS011;2210;51.938;8.488;2022-12-08T00:03:12;9.87;;;8.40;;
4391;SDS011;2210;51.938;8.488;2022-12-08T00:07:18;10.07;;;9.07;;
4391;SDS011;2210;51.938;8.488;2022-12-08T00:11:37;12.17;;;8.20;;
4391;SDS011;2210;51.938;8.488;2022-12-08T00:15:38;12.47;;;8.53;;
4391;SDS011;2210;51.938;8.488;2022-12-08T00:19:39;9.70;;;7.60;;
4391;SDS011;2210;51.938;8.488;2022-12-08T00:23:40;7.73;;;6.80;;
4391;SDS011;2210;51.938;8.488;2022-12-08T00:27:40;9.53;;;7.83;;
4391;SDS011;2210;51.938;8.488;2022-12-08T00:31:40;7.47;;;6.77;;
4391;SDS011;2210;51.938;8.488;2022-12-08T00:35:40;7.70;;;6.90;;
4391;SDS011;2210;51.938;8.488;2022-12-08T00:39:41;8.10;;;7.10;;
4391;SDS011;2210;51.938;8.488;2022-12-08T00:43:41;6.93;;;6.23;;
4391;SDS011;2210;51.938;8.488;2022-12-08T00:47:45;9.17;;;7.17;;
4391;SDS011;2210;51.938;8.488;2022-12-08T00:51:48;9.70;;;7.70;;
4391;SDS011;2210;51.938;8.488;2022-12-08T00:55:48;10.40;;;8.27;;
4391;SDS011;2210;51.938;8.488;2022-12-08T00:59:55;9.13;;;7.40;;
4391;SDS011;2210;51.938;8.488;2022-12-08T01:03:56;10.80;;;8.40;;
4391;SDS011;2210;51.938;8.488;2022-12-08T01:07:56;11.23;;;7.93;;
4391;SDS011;2210;51.938;8.488;2022-12-08T01:11:56;9.20;;;7.90;;
4391;SDS011;2210;51.938;8.488;2022-12-08T01:15:57;9.03;;;8.07;;
4391;SDS011;2210;51.938;8.488;2022-12-08T01:19:57;8.43;;;7.63;;
4391;SDS011;2210;51.938;8.488;2022-12-08T01:24:01;12.00;;;7.87;;
4391;SDS011;2210;51.938;8.488;2022-12-08T01:28:01;10.20;;;8.40;;
4391;SDS011;2210;51.938;8.488;2022-12-08T01:32:06;11.00;;;9.50;;
4391;SDS011;2210;51.938;8.488;2022-12-08T01:36:40;16.77;;;11.03;;
4391;SDS011;2210;51.938;8.488;2022-12-08T01:40:36;13.80;;;10.50;;
4391;SDS011;2210;51.938;8.488;2022-12-08T01:48:39;17.05;;;12.45;;
4391;SDS011;2210;51.938;8.488;2022-12-08T01:52:40;16.10;;;12.50;;
4391;SDS011;2210;51.938;8.488;2022-12-08T01:56:47;15.90;;;11.47;;
4391;SDS011;2210;51.938;8.488;2022-12-08T02:00:54;19.00;;;13.37;;
4391;SDS011;2210;51.938;8.488;2022-12-08T02:04:57;17.00;;;12.60;;
4391;SDS011;2210;51.938;8.488;2022-12-08T02:09:01;15.40;;;11.03;;
4391;SDS011;2210;51.938;8.488;2022-12-08T02:13:03;13.13;;;10.90;;
4391;SDS011;2210;51.938;8.488;2022-12-08T02:39:34;14.90;;;11.77;;
4391;SDS011;2210;51.938;8.488;2022-12-08T02:43:46;14.20;;;11.20;;
4391;SDS011;2210;51.938;8.488;2022-12-08T02:47:53;15.23;;;12.63;;
4391;SDS011;2210;51.938;8.488;2022-12-08T02:52:03;16.33;;;12.70;;
4391;SDS011;2210;51.938;8.488;2022-12-08T03:09:45;16.10;;;13.13;;
4391;SDS011;2210;51.938;8.488;2022-12-08T03:13:52;16.83;;;12.47;;
4391;SDS011;2210;51.938;8.488;2022-12-08T03:17:56;18.13;;;14.67;;
4391;SDS011;2210;51.938;8.488;2022-12-08T03:21:58;16.43;;;11.57;;
4391;SDS011;2210;51.938;8.488;2022-12-08T03:26:21;15.10;;;12.60;;
4391;SDS011;2210;51.938;8.488;2022-12-08T03:30:37;17.57;;;13.30;;
4391;SDS011;2210;51.938;8.488;2022-12-08T03:34:41;17.13;;;14.97;;
4391;SDS011;2210;51.938;8.488;2022-12-08T03:38:45;23.43;;;14.03;;
4391;SDS011;2210;51.938;8.488;2022-12-08T03:43:00;17.90;;;15.33;;
4391;SDS011;2210;51.938;8.488;2022-12-08T03:47:01;20.10;;;15.90;;
4391;SDS011;2210;51.938;8.488;2022-12-08T03:51:01;17.60;;;15.80;;
4391;SDS011;2210;51.938;8.488;2022-12-08T03:55:01;17.80;;;15.83;;
4391;SDS011;2210;51.938;8.488;2022-12-08T03:59:05;19.17;;;15.20;;
4391;SDS011;2210;51.938;8.488;2022-12-08T04:03:09;16.23;;;14.50;;
4391;SDS011;2210;51.938;8.488;2022-12-08T04:07:09;20.20;;;12.47;;
4391;SDS011;2210;51.938;8.488;2022-12-08T04:11:10;15.30;;;12.60;;
4391;SDS011;2210;51.938;8.488;2022-12-08T04:15:13;16.27;;;12.53;;
4391;SDS011;2210;51.938;8.488;2022-12-08T04:19:13;13.63;;;12.23;;
4391;SDS011;2210;51.938;8.488;2022-12-08T04:23:14;14.83;;;13.43;;
4391;SDS011;2210;51.938;8.488;2022-12-08T04:27:14;13.57;;;12.27;;
4391;SDS011;2210;51.938;8.488;2022-12-08T04:31:15;13.70;;;12.30;;
4391;SDS011;2210;51.938;8.488;2022-12-08T04:35:21;16.73;;;13.93;;
4391;SDS011;2210;51.938;8.488;2022-12-08T04:39:21;14.60;;;13.00;;
4391;SDS011;2210;51.938;8.488;2022-12-08T04:43:28;14.53;;;12.90;;
4391;SDS011;2210;51.938;8.488;2022-12-08T04:47:28;16.57;;;13.13;;
4391;SDS011;2210;51.938;8.488;2022-12-08T04:51:29;16.40;;;13.90;;
4391;SDS011;2210;51.938;8.488;2022-12-08T04:55:32;14.73;;;13.13;;
4391;SDS011;2210;51.938;8.488;2022-12-08T04:59:32;16.37;;;13.40;;
4391;SDS011;2210;51.938;8.488;2022-12-08T05:03:45;16.10;;;13.60;;
4391;SDS011;2210;51.938;8.488;2022-12-08T05:07:45;14.70;;;13.20;;
4391;SDS011;2210;51.938;8.488;2022-12-08T05:11:48;15.27;;;13.37;;
4391;SDS011;2210;51.938;8.488;2022-12-08T05:15:49;16.50;;;13.83;;
4391;SDS011;2210;51.938;8.488;2022-12-08T05:19:49;18.17;;;12.55;;
4391;SDS011;2210;51.938;8.488;2022-12-08T05:23:49;12.33;;;10.40;;
4391;SDS011;2210;51.938;8.488;2022-12-08T05:27:49;17.70;;;13.23;;
4391;SDS011;2210;51.938;8.488;2022-12-08T05:31:53;15.07;;;13.20;;
4391;SDS011;2210;51.938;8.488;2022-12-08T05:35:53;14.67;;;13.17;;
4391;SDS011;2210;51.938;8.488;2022-12-08T05:40:00;14.77;;;11.80;;
4391;SDS011;2210;51.938;8.488;2022-12-08T05:44:12;14.17;;;11.50;;
4391;SDS011;2210;51.938;8.488;2022-12-08T05:48:19;13.60;;;12.20;;
4391;SDS011;2210;51.938;8.488;2022-12-08T05:52:19;17.20;;;15.30;;
4391;SDS011;2210;51.938;8.488;2022-12-08T05:56:20;18.70;;;13.97;;
4391;SDS011;2210;51.938;8.488;2022-12-08T06:00:21;15.73;;;13.60;;
4391;SDS011;2210;51.938;8.488;2022-12-08T06:04:21;17.00;;;13.70;;
4391;SDS011;2210;51.938;8.488;2022-12-08T06:08:22;16.67;;;14.77;;
4391;SDS011;2210;51.938;8.488;2022-12-08T06:12:34;16.60;;;14.10;;
4391;SDS011;2210;51.938;8.488;2022-12-08T06:16:40;15.77;;;13.43;;
4391;SDS011;2210;51.938;8.488;2022-12-08T06:20:46;14.23;;;12.73;;
4391;SDS011;2210;51.938;8.488;2022-12-08T06:24:53;15.70;;;14.03;;
4391;SDS011;2210;51.938;8.488;2022-12-08T06:28:53;17.77;;;14.73;;
4391;SDS011;2210;51.938;8.488;2022-12-08T06:32:56;18.83;;;15.40;;
4391;SDS011;2210;51.938;8.488;2022-12-08T06:36:56;18.33;;;15.40;;
4391;SDS011;2210;51.938;8.488;2022-12-08T06:40:57;21.52;;;16.42;;
4391;SDS011;2210;51.938;8.488;2022-12-08T06:45:01;20.53;;;15.63;;
4391;SDS011;2210;51.938;8.488;2022-12-08T06:49:01;19.10;;;15.70;;
4391;SDS011;2210;51.938;8.488;2022-12-08T06:53:01;25.23;;;17.70;;
4391;SDS011;2210;51.938;8.488;2022-12-08T06:57:04;22.63;;;18.50;;
4391;SDS011;2210;51.938;8.488;2022-12-08T07:01:09;23.43;;;18.27;;
4391;SDS011;2210;51.938;8.488;2022-12-08T07:05:14;17.80;;;15.90;;
4391;SDS011;2210;51.938;8.488;2022-12-08T07:09:17;27.50;;;16.07;;
4391;SDS011;2210;51.938;8.488;2022-12-08T07:13:23;20.60;;;15.93;;
4391;SDS011;2210;51.938;8.488;2022-12-08T07:17:24;20.53;;;16.60;;
4391;SDS011;2210;51.938;8.488;2022-12-08T07:21:27;22.13;;;16.73;;
4391;SDS011;2210;51.938;8.488;2022-12-08T07:25:27;21.53;;;17.03;;
4391;SDS011;2210;51.938;8.488;2022-12-08T07:29:28;20.40;;;16.47;;
4391;SDS011;2210;51.938;8.488;2022-12-08T07:33:28;18.20;;;14.80;;
4391;SDS011;2210;51.938;8.488;2022-12-08T07:37:28;17.60;;;14.90;;
4391;SDS011;2210;51.938;8.488;2022-12-08T07:41:29;17.43;;;14.57;;
4391;SDS011;2210;51.938;8.488;2022-12-08T07:45:29;15.97;;;13.20;;
4391;SDS011;2210;51.938;8.488;2022-12-08T07:49:29;17.10;;;13.10;;
4391;SDS011;2210;51.938;8.488;2022-12-08T07:53:33;15.47;;;12.27;;
4391;SDS011;2210;51.938;8.488;2022-12-08T07:57:36;14.43;;;11.83;;
4391;SDS011;2210;51.938;8.488;2022-12-08T08:01:39;17.33;;;13.80;;
4391;SDS011;2210;51.938;8.488;2022-12-08T08:05:40;18.10;;;13.63;;
4391;SDS011;2210;51.938;8.488;2022-12-08T08:09:40;16.07;;;13.50;;
4391;SDS011;2210;51.938;8.488;2022-12-08T08:13:40;11.77;;;10.47;;
4391;SDS011;2210;51.938;8.488;2022-12-08T08:17:41;12.80;;;10.13;;
4391;SDS011;2210;51.938;8.488;2022-12-08T08:21:41;10.60;;;8.73;;
4391;SDS011;2210;51.938;8.488;2022-12-08T08:25:41;12.10;;;10.27;;
4391;SDS011;2210;51.938;8.488;2022-12-08T08:29:51;11.50;;;9.33;;
4391;SDS011;2210;51.938;8.488;2022-12-08T08:33:55;12.23;;;9.93;;
4391;SDS011;2210;51.938;8.488;2022-12-08T08:37:56;11.43;;;9.57;;
4391;SDS011;2210;51.938;8.488;2022-12-08T08:41:56;9.40;;;8.17;;
4391;SDS011;2210;51.938;8.488;2022-12-08T08:45:57;12.77;;;9.87;;
4391;SDS011;2210;51.938;8.488;2022-12-08T08:49:58;9.33;;;8.20;;
4391;SDS011;2210;51.938;8.488;2022-12-08T08:54:05;10.60;;;8.60;;
4391;SDS011;2210;51.938;8.488;2022-12-08T08:58:05;11.20;;;9.60;;
4391;SDS011;2210;51.938;8.488;2022-12-08T09:02:12;12.50;;;10.00;;
4391;SDS011;2210;51.938;8.488;2022-12-08T09:06:15;11.10;;;9.50;;
4391;SDS011;2210;51.938;8.488;2022-12-08T09:10:16;10.03;;;8.70;;
4391;SDS011;2210;51.938;8.488;2022-12-08T09:14:19;12.37;;;9.73;;
4391;SDS011;2210;51.938;8.488;2022-12-08T09:18:20;10.37;;;8.90;;
4391;SDS011;2210;51.938;8.488;2022-12-08T09:22:20;9.90;;;8.50;;
4391;SDS011;2210;51.938;8.488;2022-12-08T09:26:20;10.77;;;8.40;;
4391;SDS011;2210;51.938;8.488;2022-12-08T09:30:21;8.40;;;7.60;;
4391;SDS011;2210;51.938;8.488;2022-12-08T09:34:27;9.23;;;8.33;;
4391;SDS011;2210;51.938;8.488;2022-12-08T09:38:27;8.57;;;7.73;;
4391;SDS011;2210;51.938;8.488;2022-12-08T09:42:32;7.67;;;6.97;;
4391;SDS011;2210;51.938;8.488;2022-12-08T09:46:46;7.33;;;6.50;;
4391;SDS011;2210;51.938;8.488;2022-12-08T09:50:56;6.50;;;5.90;;
4391;SDS011;2210;51.938;8.488;2022-12-08T09:54:57;6.83;;;6.20;;
4391;SDS011;2210;51.938;8.488;2022-12-08T09:59:09;7.20;;;6.10;;
4391;SDS011;2210;51.938;8.488;2022-12-08T10:03:27;7.80;;;6.97;;
4391;SDS011;2210;51.938;8.488;2022-12-08T10:07:47;7.40;;;6.43;;
4391;SDS011;2210;51.938;8.488;2022-12-08T10:11:57;6.40;;;5.80;;
4391;SDS011;2210;51.938;8.488;2022-12-08T10:20:35;6.27;;;5.67;;
4391;SDS011;2210;51.938;8.488;2022-12-08T10:24:42;7.47;;;6.70;;
4391;SDS011;2210;51.938;8.488;2022-12-08T10:28:55;6.50;;;5.90;;
4391;SDS011;2210;51.938;8.488;2022-12-08T10:33:03;6.40;;;5.80;;
4391;SDS011;2210;51.938;8.488;2022-12-08T10:37:03;16.90;;;5.70;;
4391;SDS011;2210;51.938;8.488;2022-12-08T10:41:18;6.23;;;5.63;;
4391;SDS011;2210;51.938;8.488;2022-12-08T10:49:31;6.10;;;5.60;;
4391;SDS011;2210;51.938;8.488;2022-12-08T10:53:32;8.03;;;6.10;;
4391;SDS011;2210;51.938;8.488;2022-12-08T11:02:50;5.37;;;4.97;;
4391;SDS011;2210;51.938;8.488;2022-12-08T11:06:56;5.13;;;4.73;;
4391;SDS011;2210;51.938;8.488;2022-12-08T11:10:57;7.00;;;6.30;;
4391;SDS011;2210;51.938;8.488;2022-12-08T11:15:00;5.47;;;4.97;;
4391;SDS011;2210;51.938;8.488;2022-12-08T11:19:03;5.23;;;4.73;;
4391;SDS011;2210;51.938;8.488;2022-12-08T11:23:16;5.73;;;5.20;;
4391;SDS011;2210;51.938;8.488;2022-12-08T11:27:19;5.03;;;4.40;;
4391;SDS011;2210;51.938;8.488;2022-12-08T11:35:44;5.00;;;4.60;;
4391;SDS011;2210;51.938;8.488;2022-12-08T11:39:47;5.00;;;4.43;;
4391;SDS011;2210;51.938;8.488;2022-12-08T11:48:43;4.67;;;4.27;;
4391;SDS011;2210;51.938;8.488;2022-12-08T11:52:57;4.80;;;4.30;;
4391;SDS011;2210;51.938;8.488;2022-12-08T11:57:04;4.67;;;4.13;;
4391;SDS011;2210;51.938;8.488;2022-12-08T12:01:15;4.53;;;4.13;;
4391;SDS011;2210;51.938;8.488;2022-12-08T12:18:46;5.70;;;4.30;;
4391;SDS011;2210;51.938;8.488;2022-12-08T12:22:55;7.30;;;3.60;;
4391;SDS011;2210;51.938;8.488;2022-12-08T12:27:21;4.13;;;3.83;;
4391;SDS011;2210;51.938;8.488;2022-12-08T12:35:33;4.83;;;4.40;;
4391;SDS011;2210;51.938;8.488;2022-12-08T12:48:21;3.93;;;3.63;;
4391;SDS011;2210;51.938;8.488;2022-12-08T12:52:45;3.93;;;3.53;;
4391;SDS011;2210;51.938;8.488;2022-12-08T12:56:55;4.10;;;3.70;;
4391;SDS011;2210;51.938;8.488;2022-12-08T13:01:34;5.73;;;3.93;;
4391;SDS011;2210;51.938;8.488;2022-12-08T13:05:49;11.20;;;4.37;;
4391;SDS011;2210;51.938;8.488;2022-12-08T13:09:59;4.03;;;3.63;;
4391;SDS011;2210;51.938;8.488;2022-12-08T13:14:31;3.97;;;3.67;;
4391;SDS011;2210;51.938;8.488;2022-12-08T13:18:39;3.37;;;3.00;;
4391;SDS011;2210;51.938;8.488;2022-12-08T13:27:28;5.97;;;3.90;;
4391;SDS011;2210;51.938;8.488;2022-12-08T13:35:59;3.47;;;3.13;;
4391;SDS011;2210;51.938;8.488;2022-12-08T13:44:38;2.83;;;2.63;;
4391;SDS011;2210;51.938;8.488;2022-12-08T13:48:49;4.30;;;3.00;;
4391;SDS011;2210;51.938;8.488;2022-12-08T13:52:54;3.57;;;3.20;;
4391;SDS011;2210;51.938;8.488;2022-12-08T13:56:58;4.77;;;2.90;;
4391;SDS011;2210;51.938;8.488;2022-12-08T14:05:05;2.77;;;2.57;;
4391;SDS011;2210;51.938;8.488;2022-12-08T14:09:08;3.43;;;2.87;;
4391;SDS011;2210;51.938;8.488;2022-12-08T14:13:22;4.60;;;3.33;;
4391;SDS011;2210;51.938;8.488;2022-12-08T14:17:26;3.47;;;2.70;;
4391;SDS011;2210;51.938;8.488;2022-12-08T14:21:33;5.13;;;3.50;;
4391;SDS011;2210;51.938;8.488;2022-12-08T14:25:39;4.40;;;3.20;;
4391;SDS011;2210;51.938;8.488;2022-12-08T14:30:00;3.37;;;3.07;;
4391;SDS011;2210;51.938;8.488;2022-12-08T14:34:23;2.90;;;2.70;;
4391;SDS011;2210;51.938;8.488;2022-12-08T14:38:24;3.93;;;2.53;;
4391;SDS011;2210;51.938;8.488;2022-12-08T14:42:25;4.47;;;2.60;;
4391;SDS011;2210;51.938;8.488;2022-12-08T14:46:30;5.73;;;3.33;;
4391;SDS011;2210;51.938;8.488;2022-12-08T14:50:40;3.90;;;3.60;;
4391;SDS011;2210;51.938;8.488;2022-12-08T14:55:05;4.43;;;4.03;;
4391;SDS011;2210;51.938;8.488;2022-12-08T14:59:25;8.07;;;5.80;;
4391;SDS011;2210;51.938;8.488;2022-12-08T15:03:29;7.60;;;5.77;;
4391;SDS011;2210;51.938;8.488;2022-12-08T15:07:34;5.47;;;4.97;;
4391;SDS011;2210;51.938;8.488;2022-12-08T15:11:58;10.53;;;6.07;;
4391;SDS011;2210;51.938;8.488;2022-12-08T15:16:30;6.10;;;5.00;;
4391;SDS011;2210;51.938;8.488;2022-12-08T15:20:39;5.53;;;5.00;;
4391;SDS011;2210;51.938;8.488;2022-12-08T15:24:43;4.33;;;3.83;;
4391;SDS011;2210;51.938;8.488;2022-12-08T15:28:46;5.33;;;4.10;;
4391;SDS011;2210;51.938;8.488;2022-12-08T15:32:49;5.10;;;4.60;;
4391;SDS011;2210;51.938;8.488;2022-12-08T15:36:52;6.03;;;4.60;;
4391;SDS011;2210;51.938;8.488;2022-12-08T15:40:59;5.87;;;5.27;;
4391;SDS011;2210;51.938;8.488;2022-12-08T15:45:00;7.90;;;5.40;;
4391;SDS011;2210;51.938;8.488;2022-12-08T15:49:00;7.20;;;5.87;;
4391;SDS011;2210;51.938;8.488;2022-12-08T15:53:08;6.93;;;6.00;;
4391;SDS011;2210;51.938;8.488;2022-12-08T16:01:31;8.67;;;7.73;;
4391;SDS011;2210;51.938;8.488;2022-12-08T16:05:34;8.73;;;6.23;;
4391;SDS011;2210;51.938;8.488;2022-12-08T16:09:41;6.10;;;5.50;;
4391;SDS011;2210;51.938;8.488;2022-12-08T16:13:45;6.23;;;5.00;;
4391;SDS011;2210;51.938;8.488;2022-12-08T16:17:52;6.37;;;5.47;;
4391;SDS011;2210;51.938;8.488;2022-12-08T16:21:53;5.73;;;5.13;;
4391;SDS011;2210;51.938;8.488;2022-12-08T16:25:53;5.50;;;5.00;;
4391;SDS011;2210;51.938;8.488;2022-12-08T16:29:55;7.60;;;6.97;;
4391;SDS011;2210;51.938;8.488;2022-12-08T16:33:59;9.50;;;8.57;;
4391;SDS011;2210;51.938;8.488;2022-12-08T16:38:00;15.27;;;12.30;;
4391;SDS011;2210;51.938;8.488;2022-12-08T16:42:00;38.07;;;19.67;;
4391;SDS011;2210;51.938;8.488;2022-12-08T16:46:23;26.53;;;16.47;;
4391;SDS011;2210;51.938;8.488;2022-12-08T16:50:30;24.00;;;15.77;;
4391;SDS011;2210;51.938;8.488;2022-12-08T16:54:38;25.67;;;17.00;;
4391;SDS011;2210;51.938;8.488;2022-12-08T16:58:44;43.67;;;25.40;;
4391;SDS011;2210;51.938;8.488;2022-12-08T17:02:52;32.53;;;22.23;;
4391;SDS011;2210;51.938;8.488;2022-12-08T17:06:53;39.13;;;24.87;;
4391;SDS011;2210;51.938;8.488;2022-12-08T17:10:53;21.57;;;16.70;;
4391;SDS011;2210;51.938;8.488;2022-12-08T17:15:09;19.77;;;15.80;;
4391;SDS011;2210;51.938;8.488;2022-12-08T17:19:13;21.37;;;18.20;;
4391;SDS011;2210;51.938;8.488;2022-12-08T17:23:17;18.13;;;15.50;;
4391;SDS011;2210;51.938;8.488;2022-12-08T17:27:26;17.97;;;16.07;;
4391;SDS011;2210;51.938;8.488;2022-12-08T17:31:27;18.13;;;16.20;;
4391;SDS011;2210;51.938;8.488;2022-12-08T17:35:28;17.43;;;15.53;;
4391;SDS011;2210;51.938;8.488;2022-12-08T17:39:28;18.30;;;16.20;;
4391;SDS011;2210;51.938;8.488;2022-12-08T17:43:30;15.70;;;14.10;;
4391;SDS011;2210;51.938;8.488;2022-12-08T17:47:30;15.70;;;13.70;;
4391;SDS011;2210;51.938;8.488;2022-12-08T17:51:40;19.50;;;15.93;;
4391;SDS011;2210;51.938;8.488;2022-12-08T17:55:40;16.90;;;14.50;;
4391;SDS011;2210;51.938;8.488;2022-12-08T17:59:41;17.47;;;15.57;;
4391;SDS011;2210;51.938;8.488;2022-12-08T18:03:41;16.03;;;13.60;;
4391;SDS011;2210;51.938;8.488;2022-12-08T18:07:41;17.90;;;14.47;;
4391;SDS011;2210;51.938;8.488;2022-12-08T18:11:48;16.20;;;13.10;;
4391;SDS011;2210;51.938;8.488;2022-12-08T18:15:54;15.53;;;13.40;;
4391;SDS011;2210;51.938;8.488;2022-12-08T18:19:54;15.73;;;13.90;;
4391;SDS011;2210;51.938;8.488;2022-12-08T18:23:58;15.93;;;13.90;;
4391;SDS011;2210;51.938;8.488;2022-12-08T18:28:01;17.67;;;14.40;;
4391;SDS011;2210;51.938;8.488;2022-12-08T18:32:02;14.50;;;13.00;;
4391;SDS011;2210;51.938;8.488;2022-12-08T18:36:05;15.17;;;13.57;;
4391;SDS011;2210;51.938;8.488;2022-12-08T18:40:10;15.70;;;13.97;;
4391;SDS011;2210;51.938;8.488;2022-12-08T18:44:14;16.97;;;14.23;;
4391;SDS011;2210;51.938;8.488;2022-12-08T18:48:29;16.80;;;15.00;;
4391;SDS011;2210;51.938;8.488;2022-12-08T18:52:33;15.43;;;13.40;;
4391;SDS011;2210;51.938;8.488;2022-12-08T18:56:34;15.10;;;13.37;;
4391;SDS011;2210;51.938;8.488;2022-12-08T19:00:41;16.00;;;13.97;;
4391;SDS011;2210;51.938;8.488;2022-12-08T19:04:56;15.30;;;13.37;;
4391;SDS011;2210;51.938;8.488;2022-12-08T19:08:57;16.27;;;14.40;;
4391;SDS011;2210;51.938;8.488;2022-12-08T19:12:57;18.00;;;15.37;;
4391;SDS011;2210;51.938;8.488;2022-12-08T19:16:58;18.83;;;15.00;;
4391;SDS011;2210;51.938;8.488;2022-12-08T19:21:02;18.57;;;15.67;;
4391;SDS011;2210;51.938;8.488;2022-12-08T19:25:02;24.10;;;19.70;;
4391;SDS011;2210;51.938;8.488;2022-12-08T19:29:03;16.83;;;14.67;;
4391;SDS011;2210;51.938;8.488;2022-12-08T19:33:03;17.53;;;14.90;;
4391;SDS011;2210;51.938;8.488;2022-12-08T19:37:06;15.93;;;13.30;;
4391;SDS011;2210;51.938;8.488;2022-12-08T19:45:53;17.23;;;14.40;;
4391;SDS011;2210;51.938;8.488;2022-12-08T19:50:09;21.30;;;15.80;;
4391;SDS011;2210;51.938;8.488;2022-12-08T19:54:32;20.57;;;13.93;;
4391;SDS011;2210;51.938;8.488;2022-12-08T19:58:39;17.07;;;13.50;;
4391;SDS011;2210;51.938;8.488;2022-12-08T20:02:42;22.53;;;13.93;;
4391;SDS011;2210;51.938;8.488;2022-12-08T20:06:43;19.27;;;15.03;;
4391;SDS011;2210;51.938;8.488;2022-12-08T20:10:53;22.50;;;17.50;;
4391;SDS011;2210;51.938;8.488;2022-12-08T20:14:57;32.60;;;22.07;;
4391;SDS011;2210;51.938;8.488;2022-12-08T20:18:58;25.27;;;18.47;;
4391;SDS011;2210;51.938;8.488;2022-12-08T20:22:59;26.13;;;18.20;;
4391;SDS011;2210;51.938;8.488;2022-12-08T20:26:59;22.77;;;16.37;;
4391;SDS011;2210;51.938;8.488;2022-12-08T20:30:59;24.70;;;16.87;;
4391;SDS011;2210;51.938;8.488;2022-12-08T20:34:59;29.87;;;20.00;;
4391;SDS011;2210;51.938;8.488;2022-12-08T20:39:00;28.37;;;20.03;;
4391;SDS011;2210;51.938;8.488;2022-12-08T20:43:00;19.77;;;14.27;;
4391;SDS011;2210;51.938;8.488;2022-12-08T20:47:00;23.17;;;16.50;;
4391;SDS011;2210;51.938;8.488;2022-12-08T20:51:01;32.83;;;20.90;;
4391;SDS011;2210;51.938;8.488;2022-12-08T20:55:11;38.53;;;26.80;;
4391;SDS011;2210;51.938;8.488;2022-12-08T20:59:15;29.77;;;20.50;;
4391;SDS011;2210;51.938;8.488;2022-12-08T21:03:16;32.50;;;22.40;;
4391;SDS011;2210;51.938;8.488;2022-12-08T21:07:17;31.63;;;22.13;;
4391;SDS011;2210;51.938;8.488;2022-12-08T21:11:23;34.73;;;22.83;;
4391;SDS011;2210;51.938;8.488;2022-12-08T21:15:26;29.47;;;21.03;;
4391;SDS011;2210;51.938;8.488;2022-12-08T21:19:27;30.07;;;20.23;;
4391;SDS011;2210;51.938;8.488;2022-12-08T21:23:27;28.80;;;19.30;;
4391;SDS011;2210;51.938;8.488;2022-12-08T21:27:28;34.00;;;23.37;;
4391;SDS011;2210;51.938;8.488;2022-12-08T21:31:28;31.40;;;21.13;;
4391;SDS011;2210;51.938;8.488;2022-12-08T21:35:30;27.87;;;20.03;;
4391;SDS011;2210;51.938;8.488;2022-12-08T21:39:30;27.77;;;20.40;;
4391;SDS011;2210;51.938;8.488;2022-12-08T21:43:31;31.13;;;20.03;;
4391;SDS011;2210;51.938;8.488;2022-12-08T21:47:32;24.23;;;17.70;;
4391;SDS011;2210;51.938;8.488;2022-12-08T21:51:35;26.40;;;17.83;;
4391;SDS011;2210;51.938;8.488;2022-12-08T21:55:40;27.67;;;19.40;;
4391;SDS011;2210;51.938;8.488;2022-12-08T21:59:40;57.07;;;30.70;;
4391;SDS011;2210;51.938;8.488;2022-12-08T22:03:41;28.17;;;19.20;;
4391;SDS011;2210;51.938;8.488;2022-12-08T22:07:44;22.83;;;16.80;;
4391;SDS011;2210;51.938;8.488;2022-12-08T22:11:44;22.50;;;16.80;;
4391;SDS011;2210;51.938;8.488;2022-12-08T22:15:45;20.63;;;15.23;;
4391;SDS011;2210;51.938;8.488;2022-12-08T22:19:53;21.40;;;16.07;;
4391;SDS011;2210;51.938;8.488;2022-12-08T22:23:56;19.52;;;16.20;;
4391;SDS011;2210;51.938;8.488;2022-12-08T22:27:57;19.10;;;14.53;;
4391;SDS011;2210;51.938;8.488;2022-12-08T22:31:57;22.43;;;17.50;;
4391;SDS011;2210;51.938;8.488;2022-12-08T22:35:59;19.93;;;16.67;;
4391;SDS011;2210;51.938;8.488;2022-12-08T22:40:00;19.93;;;16.27;;
4391;SDS011;2210;51.938;8.488;2022-12-08T22:44:03;18.53;;;15.60;;
4391;SDS011;2210;51.938;8.488;2022-12-08T22:48:20;20.50;;;15.80;;
4391;SDS011;2210;51.938;8.488;2022-12-08T22:52:20;20.07;;;15.30;;
4391;SDS011;2210;51.938;8.488;2022-12-08T22:56:20;22.43;;;15.63;;
4391;SDS011;2210;51.938;8.488;2022-12-08T23:00:21;22.73;;;16.30;;
4391;SDS011;2210;51.938;8.488;2022-12-08T23:04:21;18.33;;;15.00;;
4391;SDS011;2210;51.938;8.488;2022-12-08T23:08:24;21.20;;;16.37;;
4391;SDS011;2210;51.938;8.488;2022-12-08T23:12:28;21.37;;;15.77;;
4391;SDS011;2210;51.938;8.488;2022-12-08T23:16:28;18.60;;;15.30;;
4391;SDS011;2210;51.938;8.488;2022-12-08T23:20:29;20.57;;;15.10;;
4391;SDS011;2210;51.938;8.488;2022-12-08T23:24:35;18.97;;;15.57;;
4391;SDS011;2210;51.938;8.488;2022-12-08T23:28:35;19.10;;;15.10;;
4391;SDS011;2210;51.938;8.488;2022-12-08T23:32:36;20.40;;;16.30;;
4391;SDS011;2210;51.938;8.488;2022-12-08T23:36:39;17.23;;;14.13;;
4391;SDS011;2210;51.938;8.488;2022-12-08T23:40:39;21.37;;;15.80;;
4391;SDS011;2210;51.938;8.488;2022-12-08T23:44:40;16.60;;;13.60;;
4391;SDS011;2210;51.938;8.488;2022-12-08T23:48:52;15.37;;;12.60;;
4391;SDS011;2210;51.938;8.488;2022-12-08T23:52:52;15.37;;;12.97;;
4391;SDS011;2210;51.938;8.488;2022-12-08T23:56:53;14.87;;;12.80;;
